createdAt,value
2023-06-28T00:00:53.723Z,994.54
2023-06-28T00:01:53.758Z,994.62
2023-06-28T00:02:53.747Z,994.56
2023-06-28T00:03:53.776Z,994.65
2023-06-28T00:04:53.681Z,994.56
2023-06-28T00:05:53.659Z,994.59
2023-06-28T00:06:53.675Z,994.55
2023-06-28T00:07:53.653Z,994.60
2023-06-28T00:08:53.630Z,994.68
2023-06-28T00:09:53.632Z,994.68
2023-06-28T00:10:53.608Z,994.60
2023-06-28T00:11:53.608Z,994.59
2023-06-28T00:12:53.587Z,994.64
2023-06-28T00:13:53.570Z,994.61
2023-06-28T00:14:53.579Z,994.62
2023-06-28T00:15:53.556Z,994.62
2023-06-28T00:16:53.560Z,994.66
2023-06-28T00:17:53.568Z,994.60
2023-06-28T00:18:53.543Z,994.61
2023-06-28T00:19:53.543Z,994.60
2023-06-28T00:20:53.525Z,994.61
2023-06-28T00:21:53.589Z,994.58
2023-06-28T00:22:53.486Z,994.67
2023-06-28T00:23:53.482Z,994.65
2023-06-28T00:24:53.471Z,994.63
2023-06-28T00:25:53.508Z,994.66
2023-06-28T00:26:53.447Z,994.71
2023-06-28T00:27:53.443Z,994.76
2023-06-28T00:28:53.444Z,994.70
2023-06-28T00:29:53.416Z,994.69
2023-06-28T00:30:53.403Z,994.73
2023-06-28T00:31:53.438Z,994.74
2023-06-28T00:32:53.456Z,994.67
2023-06-28T00:33:53.374Z,994.74
2023-06-28T00:34:53.379Z,994.73
2023-06-28T00:35:53.350Z,994.75
2023-06-28T00:36:53.344Z,994.74
2023-06-28T00:37:53.349Z,994.72
2023-06-28T00:38:53.331Z,994.78
2023-06-28T00:39:53.317Z,994.63
2023-06-28T00:40:53.305Z,994.68
2023-06-28T00:41:53.317Z,994.71
2023-06-28T00:42:53.295Z,994.64
2023-06-28T00:43:53.274Z,994.66
2023-06-28T00:44:53.272Z,994.68
2023-06-28T00:45:53.254Z,994.65
2023-06-28T00:46:53.267Z,994.61
2023-06-28T00:47:53.277Z,994.60
2023-06-28T00:48:53.234Z,994.58
2023-06-28T00:49:53.224Z,994.65
2023-06-28T00:50:53.208Z,994.62
2023-06-28T00:51:53.216Z,994.60
2023-06-28T00:52:53.195Z,994.62
2023-06-28T00:53:53.183Z,994.60
2023-06-28T00:54:53.176Z,994.63
2023-06-28T00:55:53.179Z,994.60
2023-06-28T00:56:53.168Z,994.68
2023-06-28T00:57:53.145Z,994.71
2023-06-28T00:58:53.138Z,994.77
2023-06-28T00:59:53.126Z,994.78
2023-06-28T01:00:53.121Z,994.89
2023-06-28T01:01:53.098Z,994.73
2023-06-28T01:02:53.164Z,994.79
2023-06-28T01:03:53.122Z,994.88
2023-06-28T01:04:53.075Z,994.85
2023-06-28T01:05:53.076Z,994.83
2023-06-28T01:06:53.182Z,994.89
2023-06-28T01:07:53.084Z,994.84
2023-06-28T01:08:53.036Z,994.84
2023-06-28T01:09:53.032Z,994.86
2023-06-28T01:10:53.024Z,994.85
2023-06-28T01:11:53.006Z,994.88
2023-06-28T01:12:53.001Z,994.86
2023-06-28T01:13:52.982Z,994.85
2023-06-28T01:14:52.984Z,994.85
2023-06-28T01:15:52.965Z,994.86
2023-06-28T01:16:52.956Z,994.93
2023-06-28T01:17:52.990Z,994.94
2023-06-28T01:18:52.934Z,994.89
2023-06-28T01:19:52.926Z,994.90
2023-06-28T01:20:52.906Z,994.92
2023-06-28T01:21:52.903Z,994.89
2023-06-28T01:22:52.892Z,994.91
2023-06-28T01:23:52.894Z,994.91
2023-06-28T01:24:52.884Z,994.92
2023-06-28T01:25:52.864Z,994.95
2023-06-28T01:26:52.901Z,994.93
2023-06-28T01:27:52.858Z,994.93
2023-06-28T01:28:52.847Z,994.94
2023-06-28T01:29:52.823Z,994.93
2023-06-28T01:30:52.825Z,994.87
2023-06-28T01:31:52.801Z,994.86
2023-06-28T01:32:52.879Z,994.87
2023-06-28T01:33:52.855Z,994.84
2023-06-28T01:34:52.785Z,994.92
2023-06-28T01:35:52.764Z,994.87
2023-06-28T01:36:52.755Z,994.89
2023-06-28T01:37:52.744Z,994.85
2023-06-28T01:38:52.743Z,994.92
2023-06-28T01:39:52.725Z,994.98
2023-06-28T01:40:52.713Z,994.88
2023-06-28T01:41:52.707Z,994.90
2023-06-28T01:42:52.705Z,994.96
2023-06-28T01:43:52.700Z,994.90
2023-06-28T01:44:52.676Z,994.96
2023-06-28T01:45:52.690Z,994.94
2023-06-28T01:46:52.663Z,994.92
2023-06-28T01:47:52.719Z,994.94
2023-06-28T01:48:52.640Z,995.01
2023-06-28T01:49:52.634Z,995.04
2023-06-28T01:50:52.627Z,995.01
2023-06-28T01:51:52.608Z,995.07
2023-06-28T01:52:52.608Z,995.02
2023-06-28T01:53:52.589Z,995.01
2023-06-28T01:54:52.602Z,995.09
2023-06-28T01:55:52.571Z,995.02
2023-06-28T01:56:52.569Z,995.06
2023-06-28T01:57:52.566Z,995.01
2023-06-28T01:58:52.542Z,994.99
2023-06-28T01:59:52.541Z,995.02
2023-06-28T02:00:52.571Z,995.06
2023-06-28T02:01:52.538Z,995.02
2023-06-28T02:02:52.581Z,995.14
2023-06-28T02:03:52.558Z,995.11
2023-06-28T02:04:52.480Z,995.08
2023-06-28T02:05:52.478Z,995.09
2023-06-28T02:06:52.491Z,995.07
2023-06-28T02:07:52.453Z,995.07
2023-06-28T02:08:52.444Z,995.07
2023-06-28T02:09:52.431Z,995.08
2023-06-28T02:10:52.419Z,995.14
2023-06-28T02:11:52.432Z,995.03
2023-06-28T02:12:52.421Z,995.05
2023-06-28T02:13:52.395Z,995.04
2023-06-28T02:14:52.417Z,995.09
2023-06-28T02:15:52.385Z,995.06
2023-06-28T02:16:52.429Z,995.06
2023-06-28T02:17:52.404Z,995.06
2023-06-28T02:18:52.382Z,995.07
2023-06-28T02:19:52.334Z,995.13
2023-06-28T02:20:52.340Z,995.13
2023-06-28T02:21:52.321Z,995.21
2023-06-28T02:22:52.310Z,995.08
2023-06-28T02:23:52.297Z,995.02
2023-06-28T02:24:52.295Z,995.17
2023-06-28T02:25:52.297Z,995.07
2023-06-28T02:26:52.265Z,995.15
2023-06-28T02:27:52.264Z,995.16
2023-06-28T02:28:52.257Z,995.24
2023-06-28T02:29:52.365Z,995.06
2023-06-28T02:30:52.257Z,995.12
2023-06-28T02:31:52.216Z,995.14
2023-06-28T02:32:52.255Z,995.13
2023-06-28T02:33:52.206Z,995.10
2023-06-28T02:34:52.207Z,995.13
2023-06-28T02:35:52.180Z,995.16
2023-06-28T02:36:52.166Z,995.21
2023-06-28T02:37:52.157Z,995.20
2023-06-28T02:38:52.149Z,995.28
2023-06-28T02:39:52.149Z,995.26
2023-06-28T02:40:52.127Z,995.27
2023-06-28T02:41:52.126Z,995.27
2023-06-28T02:42:52.117Z,995.23
2023-06-28T02:43:52.111Z,995.21
2023-06-28T02:44:52.104Z,995.21
2023-06-28T02:45:52.201Z,995.18
2023-06-28T02:46:52.076Z,995.17
2023-06-28T02:47:52.079Z,995.17
2023-06-28T02:48:52.057Z,995.22
2023-06-28T02:49:52.044Z,995.22
2023-06-28T02:50:52.039Z,995.22
2023-06-28T02:51:52.034Z,995.24
2023-06-28T02:52:52.020Z,995.22
2023-06-28T02:53:52.016Z,995.22
2023-06-28T02:54:51.991Z,995.22
2023-06-28T02:55:51.988Z,995.18
2023-06-28T02:56:51.979Z,995.20
2023-06-28T02:57:51.992Z,995.20
2023-06-28T02:58:51.978Z,995.17
2023-06-28T02:59:51.938Z,995.17
2023-06-28T03:00:52.030Z,995.24
2023-06-28T03:01:51.985Z,995.19
2023-06-28T03:02:52.054Z,995.14
2023-06-28T03:03:51.933Z,995.24
2023-06-28T03:04:51.887Z,995.16
2023-06-28T03:05:51.880Z,995.16
2023-06-28T03:06:51.901Z,995.18
2023-06-28T03:07:51.877Z,995.18
2023-06-28T03:08:51.854Z,995.13
2023-06-28T03:09:51.850Z,995.12
2023-06-28T03:10:51.832Z,995.09
2023-06-28T03:11:51.831Z,995.13
2023-06-28T03:12:51.817Z,995.08
2023-06-28T03:13:51.800Z,995.09
2023-06-28T03:14:51.796Z,995.12
2023-06-28T03:15:51.779Z,995.10
2023-06-28T03:16:51.786Z,995.01
2023-06-28T03:17:51.870Z,995.12
2023-06-28T03:18:51.745Z,995.08
2023-06-28T03:19:51.734Z,995.20
2023-06-28T03:20:51.733Z,995.13
2023-06-28T03:21:51.725Z,995.12
2023-06-28T03:22:51.712Z,995.16
2023-06-28T03:23:51.704Z,995.17
2023-06-28T03:24:51.688Z,995.14
2023-06-28T03:25:51.680Z,995.28
2023-06-28T03:26:51.683Z,995.26
2023-06-28T03:27:51.657Z,995.28
2023-06-28T03:28:51.648Z,995.32
2023-06-28T03:29:51.641Z,995.34
2023-06-28T03:30:51.642Z,995.24
2023-06-28T03:31:51.675Z,995.21
2023-06-28T03:32:51.633Z,995.24
2023-06-28T03:33:51.606Z,995.31
2023-06-28T03:34:51.587Z,995.29
2023-06-28T03:35:51.578Z,995.39
2023-06-28T03:37:02.870Z,995.30
2023-06-28T03:37:52.569Z,995.34
2023-06-28T03:38:51.549Z,995.33
2023-06-28T03:39:51.547Z,995.27
2023-06-28T03:40:51.541Z,995.31
2023-06-28T03:41:51.513Z,995.38
2023-06-28T03:42:51.505Z,995.38
2023-06-28T03:43:51.494Z,995.38
2023-06-28T03:44:51.494Z,995.29
2023-06-28T03:45:51.553Z,995.31
2023-06-28T03:46:51.484Z,995.35
2023-06-28T03:47:51.502Z,995.29
2023-06-28T03:48:51.452Z,995.26
2023-06-28T03:49:51.464Z,995.29
2023-06-28T03:50:51.442Z,995.23
2023-06-28T03:51:51.430Z,995.29
2023-06-28T03:52:51.413Z,995.22
2023-06-28T03:53:51.391Z,995.23
2023-06-28T03:54:51.391Z,995.27
2023-06-28T03:55:51.374Z,995.26
2023-06-28T03:56:51.385Z,995.29
2023-06-28T03:57:51.355Z,995.32
2023-06-28T03:58:51.351Z,995.28
2023-06-28T03:59:51.340Z,995.33
2023-06-28T04:00:51.326Z,995.33
2023-06-28T04:01:51.319Z,995.32
2023-06-28T04:02:51.397Z,995.32
2023-06-28T04:03:51.316Z,995.34
2023-06-28T04:04:51.283Z,995.31
2023-06-28T04:05:51.269Z,995.38
2023-06-28T04:06:51.304Z,995.37
2023-06-28T04:07:51.252Z,995.40
2023-06-28T04:08:51.249Z,995.34
2023-06-28T04:09:51.225Z,995.36
2023-06-28T04:10:51.223Z,995.36
2023-06-28T04:11:51.212Z,995.34
2023-06-28T04:12:51.216Z,995.39
2023-06-28T04:13:51.199Z,995.39
2023-06-28T04:14:51.174Z,995.30
2023-06-28T04:15:51.161Z,995.34
2023-06-28T04:16:51.155Z,995.35
2023-06-28T04:17:51.181Z,995.43
2023-06-28T04:18:51.137Z,995.36
2023-06-28T04:19:51.121Z,995.35
2023-06-28T04:20:51.124Z,995.41
2023-06-28T04:21:51.126Z,995.38
2023-06-28T04:22:51.100Z,995.36
2023-06-28T04:23:51.098Z,995.40
2023-06-28T04:24:51.821Z,995.39
2023-06-28T04:25:51.052Z,995.39
2023-06-28T04:26:51.100Z,995.37
2023-06-28T04:27:51.046Z,995.36
2023-06-28T04:28:51.028Z,995.42
2023-06-28T04:29:51.020Z,995.42
2023-06-28T04:30:51.010Z,995.34
2023-06-28T04:31:51.127Z,995.35
2023-06-28T04:32:51.010Z,995.31
2023-06-28T04:33:50.970Z,995.29
2023-06-28T04:34:50.976Z,995.26
2023-06-28T04:35:53.147Z,995.45
2023-06-28T04:36:57.442Z,995.35
2023-06-28T04:37:51.930Z,995.37
2023-06-28T04:38:50.933Z,995.40
2023-06-28T04:39:50.917Z,995.43
2023-06-28T04:40:51.840Z,995.42
2023-06-28T04:41:54.402Z,995.43
2023-06-28T04:42:50.888Z,995.47
2023-06-28T04:43:50.875Z,995.39
2023-06-28T04:44:50.876Z,995.36
2023-06-28T04:45:50.865Z,995.34
2023-06-28T04:46:50.857Z,995.45
2023-06-28T04:47:50.888Z,995.36
2023-06-28T04:48:50.832Z,995.38
2023-06-28T04:49:50.851Z,995.42
2023-06-28T04:50:50.808Z,995.29
2023-06-28T04:51:50.804Z,995.30
2023-06-28T04:52:50.784Z,995.33
2023-06-28T04:53:50.776Z,995.36
2023-06-28T04:54:50.773Z,995.29
2023-06-28T04:55:50.762Z,995.38
2023-06-28T04:56:50.763Z,995.31
2023-06-28T04:57:50.734Z,995.30
2023-06-28T04:58:50.723Z,995.28
2023-06-28T04:59:50.712Z,995.28
2023-06-28T05:00:50.842Z,995.28
2023-06-28T05:01:50.734Z,995.35
2023-06-28T05:02:50.834Z,995.32
2023-06-28T05:03:50.692Z,995.37
2023-06-28T05:04:50.676Z,995.39
2023-06-28T05:05:50.673Z,995.37
2023-06-28T05:06:50.660Z,995.37
2023-06-28T05:07:50.635Z,995.37
2023-06-28T05:08:50.635Z,995.36
2023-06-28T05:09:50.625Z,995.34
2023-06-28T05:10:50.612Z,995.39
2023-06-28T05:11:50.596Z,995.35
2023-06-28T05:12:50.584Z,995.38
2023-06-28T05:13:50.568Z,995.39
2023-06-28T05:14:50.579Z,995.40
2023-06-28T05:15:50.559Z,995.43
2023-06-28T05:16:50.561Z,995.35
2023-06-28T05:17:50.569Z,995.35
2023-06-28T05:18:50.526Z,995.34
2023-06-28T05:19:50.528Z,995.36
2023-06-28T05:20:50.495Z,995.43
2023-06-28T05:21:50.495Z,995.33
2023-06-28T05:22:50.638Z,995.35
2023-06-28T05:23:50.469Z,995.32
2023-06-28T05:27:53.472Z,995.30
2023-06-28T05:28:41.956Z,995.37
2023-06-28T05:29:41.928Z,995.32
2023-06-28T05:30:42.222Z,995.39
2023-06-28T05:31:41.965Z,995.39
2023-06-28T05:32:42.012Z,995.51
2023-06-28T05:33:41.914Z,995.39
2023-06-28T05:34:41.927Z,995.36
2023-06-28T05:35:41.882Z,995.32
2023-06-28T05:36:41.860Z,995.40
2023-06-28T05:37:41.898Z,995.40
2023-06-28T05:38:41.872Z,995.42
2023-06-28T05:39:41.854Z,995.32
2023-06-28T05:40:42.119Z,995.44
2023-06-28T05:41:41.824Z,995.39
2023-06-28T05:42:41.838Z,995.24
2023-06-28T06:11:05.150Z,995.33
2023-06-28T06:11:57.245Z,995.33
2023-06-28T06:12:56.108Z,995.30
2023-06-28T06:13:56.600Z,995.34
2023-06-28T06:14:56.016Z,995.31
2023-06-28T06:29:33.464Z,995.38
2023-06-28T06:30:05.420Z,995.34
2023-06-28T06:31:05.511Z,995.30
2023-06-28T06:33:07.489Z,995.31
2023-06-28T06:34:05.342Z,995.26
2023-06-28T06:35:05.386Z,995.32
2023-06-28T06:36:05.294Z,995.28
2023-06-28T06:37:05.280Z,995.24
2023-06-28T06:38:05.272Z,995.28
2023-06-28T06:39:05.292Z,995.26
2023-06-28T06:40:05.256Z,995.28
2023-06-28T06:41:05.248Z,995.31
2023-06-28T06:42:05.217Z,995.33
2023-06-28T06:43:05.208Z,995.32
2023-06-28T06:44:05.256Z,995.31
2023-06-28T06:45:05.212Z,995.29
2023-06-28T06:46:05.178Z,995.28
2023-06-28T06:47:05.287Z,995.29
2023-06-28T06:48:05.239Z,995.30
2023-06-28T06:49:05.159Z,995.36
2023-06-28T06:50:05.140Z,995.32
2023-06-28T06:51:05.132Z,995.31
2023-06-28T06:52:05.115Z,995.33
2023-06-28T06:53:05.126Z,995.34
2023-06-28T06:54:05.102Z,995.33
2023-06-28T06:55:05.085Z,995.28
2023-06-28T06:56:05.086Z,995.30
2023-06-28T06:57:05.067Z,995.28
2023-06-28T06:58:05.077Z,995.40
2023-06-28T06:59:05.043Z,995.31
2023-06-28T07:00:05.045Z,995.34
2023-06-28T07:01:05.022Z,995.39
2023-06-28T07:02:06.010Z,995.41
2023-06-28T07:03:05.121Z,995.33
2023-06-28T07:04:04.992Z,995.41
2023-06-28T07:05:04.990Z,995.42
2023-06-28T07:06:05.048Z,995.48
2023-06-28T07:07:05.959Z,995.45
2023-06-28T07:08:04.970Z,995.41
2023-06-28T07:09:04.950Z,995.43
2023-06-28T07:10:04.945Z,995.36
2023-06-28T07:11:04.923Z,995.39
2023-06-28T07:12:04.932Z,995.41
2023-06-28T07:13:04.914Z,995.41
2023-06-28T07:14:04.890Z,995.43
2023-06-28T07:15:04.945Z,995.43
2023-06-28T07:16:04.906Z,995.31
2023-06-28T07:17:04.878Z,995.39
2023-06-28T07:18:04.942Z,995.35
2023-06-28T07:19:04.894Z,995.30
2023-06-28T07:20:04.868Z,995.33
2023-06-28T07:21:04.808Z,995.36
2023-06-28T07:22:04.831Z,995.25
2023-06-28T07:23:04.811Z,995.37
2023-06-28T07:24:04.779Z,995.26
2023-06-28T07:25:04.783Z,995.27
2023-06-28T07:26:04.783Z,995.28
2023-06-28T07:27:04.791Z,995.32
2023-06-28T07:28:04.749Z,995.27
2023-06-28T07:29:04.768Z,995.24
2023-06-28T07:30:04.728Z,995.29
2023-06-28T07:31:04.759Z,995.28
2023-06-28T07:32:04.748Z,995.26
2023-06-28T07:33:06.062Z,995.22
2023-06-28T07:34:04.681Z,995.19
2023-06-28T07:35:04.663Z,995.19
2023-06-28T07:36:04.678Z,995.18
2023-06-28T07:37:04.649Z,995.23
2023-06-28T07:38:04.640Z,995.27
2023-06-28T07:39:04.642Z,995.22
2023-06-28T07:40:04.625Z,995.24
2023-06-28T07:41:07.266Z,995.23
2023-06-28T07:42:04.601Z,995.23
2023-06-28T07:43:04.586Z,995.23
2023-06-28T07:44:04.600Z,995.25
2023-06-28T07:45:04.570Z,995.26
2023-06-28T07:46:04.593Z,995.16
2023-06-28T07:47:04.723Z,995.17
2023-06-28T07:48:11.561Z,995.08
2023-06-28T07:49:04.528Z,995.11
2023-06-28T07:50:09.355Z,995.09
2023-06-28T07:51:05.999Z,995.10
2023-06-28T07:53:05.672Z,995.10
2023-06-28T07:54:04.494Z,995.11
2023-06-28T07:55:09.290Z,995.10
2023-06-28T07:56:04.518Z,995.11
2023-06-28T07:57:07.926Z,995.13
2023-06-28T07:58:04.592Z,995.14
2023-06-28T07:59:04.483Z,995.12
2023-06-28T08:00:04.418Z,995.14
2023-06-28T08:01:04.446Z,995.08
2023-06-28T08:02:04.435Z,995.12
2023-06-28T08:03:04.671Z,995.14
2023-06-28T08:04:17.726Z,995.11
2023-06-28T08:06:10.928Z,995.16
2023-06-28T08:08:39.419Z,995.21
2023-06-28T08:09:19.054Z,995.22
2023-06-28T09:44:52.523Z,994.84
2023-06-28T09:45:06.616Z,994.80
2023-06-28T09:46:06.503Z,994.73
2023-06-28T09:50:07.098Z,994.84
2023-06-28T09:51:23.263Z,994.79
2023-06-28T09:52:07.189Z,994.76
2023-06-28T09:53:07.162Z,994.81
2023-06-28T09:54:18.281Z,994.82
2023-06-28T09:55:07.047Z,994.85
2023-06-28T09:56:07.141Z,994.88
2023-06-28T09:57:07.126Z,994.87
2023-06-28T09:58:07.063Z,994.84
2023-06-28T09:59:07.102Z,994.85
2023-06-28T10:00:07.020Z,994.90
2023-06-28T10:01:07.073Z,994.86
2023-06-28T10:02:07.181Z,994.93
2023-06-28T10:03:07.243Z,994.87
2023-06-28T10:04:07.253Z,994.93
2023-06-28T10:05:06.986Z,994.89
2023-06-28T10:06:06.968Z,994.92
2023-06-28T10:07:07.096Z,994.96
2023-06-28T10:08:06.996Z,994.95
2023-06-28T10:09:06.905Z,994.90
2023-06-28T10:10:06.899Z,994.91
2023-06-28T10:11:06.899Z,994.90
2023-06-28T10:12:06.894Z,994.93
2023-06-28T10:13:06.866Z,994.92
2023-06-28T10:14:06.857Z,994.97
2023-06-28T10:15:06.853Z,994.92
2023-06-28T10:16:07.042Z,994.96
2023-06-28T10:17:06.836Z,994.91
2023-06-28T10:18:06.874Z,994.93
2023-06-28T10:19:06.806Z,994.93
2023-06-28T10:20:06.797Z,994.91
2023-06-28T10:21:06.791Z,994.87
2023-06-28T10:22:06.807Z,994.90
2023-06-28T10:23:06.841Z,994.86
2023-06-28T10:24:06.758Z,994.76
2023-06-28T10:25:06.756Z,994.81
2023-06-28T10:26:06.746Z,994.83
2023-06-28T10:27:06.725Z,994.81
2023-06-28T10:28:06.711Z,994.85
2023-06-28T10:29:06.693Z,994.82
2023-06-28T10:30:06.712Z,994.70
2023-06-28T10:31:06.817Z,994.79
2023-06-28T10:32:07.053Z,994.81
2023-06-28T10:33:06.690Z,994.86
2023-06-28T10:34:06.656Z,994.78
2023-06-28T10:35:06.680Z,994.69
2023-06-28T10:36:06.653Z,994.74
2023-06-28T10:37:06.700Z,994.74
2023-06-28T10:38:06.682Z,994.76
2023-06-28T10:39:06.755Z,994.73
2023-06-28T10:40:06.843Z,994.77
2023-06-28T10:41:06.765Z,994.80
2023-06-28T10:42:06.815Z,994.70
2023-06-28T10:43:06.664Z,994.69
2023-06-28T10:44:07.257Z,994.63
2023-06-28T10:45:06.605Z,994.69
2023-06-28T10:46:28.464Z,994.67
2023-06-28T10:47:07.623Z,994.65
2023-06-28T10:48:06.652Z,994.69
2023-06-28T10:49:06.603Z,994.71
2023-06-28T10:50:06.575Z,994.67
2023-06-28T10:51:10.671Z,994.68
2023-06-28T10:52:06.669Z,994.67
2023-06-28T10:53:09.483Z,994.66
2023-06-28T10:54:08.001Z,994.68
2023-06-28T10:55:07.258Z,994.58
2023-06-28T10:56:06.447Z,994.62
2023-06-28T10:57:06.474Z,994.60
2023-06-28T10:58:06.458Z,994.55
2023-06-28T10:59:06.695Z,994.61
2023-06-28T11:00:06.500Z,994.60
2023-06-28T11:01:06.505Z,994.56
2023-06-28T11:02:06.401Z,994.60
2023-06-28T11:03:06.456Z,994.60
2023-06-28T11:04:06.417Z,994.64
2023-06-28T11:05:06.433Z,994.62
2023-06-28T11:06:06.561Z,994.64
2023-06-28T11:07:06.360Z,994.60
2023-06-28T11:08:20.738Z,994.62
2023-06-28T11:09:28.343Z,994.66
2023-06-28T11:10:18.947Z,994.59
2023-06-28T11:11:06.312Z,994.53
2023-06-28T11:12:07.366Z,994.56
2023-06-28T11:13:07.875Z,994.58
2023-06-28T11:14:06.536Z,994.64
2023-06-28T11:15:08.160Z,994.60
2023-06-28T11:16:31.889Z,994.55
2023-06-28T11:17:06.284Z,994.54
2023-06-28T11:18:07.229Z,994.55
2023-06-28T11:19:07.987Z,994.54
2023-06-28T11:20:06.407Z,994.52
2023-06-28T11:21:06.668Z,994.54
2023-06-28T11:22:06.967Z,994.57
2023-06-28T11:23:06.222Z,994.58
2023-06-28T11:24:06.235Z,994.59
2023-06-28T11:25:06.170Z,994.65
2023-06-28T11:26:06.218Z,994.65
2023-06-28T11:27:06.191Z,994.74
2023-06-28T11:28:06.224Z,994.72
2023-06-28T11:29:06.154Z,994.71
2023-06-28T11:30:06.155Z,994.71
2023-06-28T11:31:06.139Z,994.71
2023-06-28T11:32:06.168Z,994.68
2023-06-28T11:33:06.133Z,994.68
2023-06-28T11:34:06.093Z,994.63
2023-06-28T11:35:06.179Z,994.62
2023-06-28T11:36:06.096Z,994.56
2023-06-28T11:37:06.102Z,994.53
2023-06-28T11:38:06.096Z,994.55
2023-06-28T11:39:06.060Z,994.49
2023-06-28T11:40:06.702Z,994.63
2023-06-28T11:41:06.058Z,994.54
2023-06-28T11:42:07.744Z,994.60
2023-06-28T11:43:05.997Z,994.60
2023-06-28T11:44:06.004Z,994.59
2023-06-28T11:45:06.099Z,994.53
2023-06-28T11:46:05.988Z,994.53
2023-06-28T11:47:05.987Z,994.51
2023-06-28T11:48:06.040Z,994.46
2023-06-28T11:49:05.957Z,994.55
2023-06-28T11:50:05.931Z,994.52
2023-06-28T11:51:06.068Z,994.55
2023-06-28T11:52:05.930Z,994.57
2023-06-28T11:53:05.942Z,994.49
2023-06-28T11:54:05.905Z,994.55
2023-06-28T11:55:05.901Z,994.54
2023-06-28T11:56:05.887Z,994.45
2023-06-28T11:57:05.871Z,994.57
2023-06-28T11:58:05.882Z,994.46
2023-06-28T11:59:05.856Z,994.47
2023-06-28T12:00:05.951Z,994.38
2023-06-28T12:01:05.852Z,994.46
2023-06-28T12:02:05.833Z,994.49
2023-06-28T12:03:05.902Z,994.44
2023-06-28T12:04:05.919Z,994.46
2023-06-28T12:05:05.903Z,994.51
2023-06-28T12:06:05.823Z,994.44
2023-06-28T12:07:05.912Z,994.47
2023-06-28T12:08:05.765Z,994.39
2023-06-28T12:09:05.761Z,994.48
2023-06-28T12:10:05.747Z,994.41
2023-06-28T12:11:05.757Z,994.48
2023-06-28T12:12:05.738Z,994.42
2023-06-28T12:13:05.729Z,994.49
2023-06-28T12:14:05.712Z,994.42
2023-06-28T12:15:05.712Z,994.52
2023-06-28T12:16:05.718Z,994.50
2023-06-28T12:17:05.695Z,994.40
2023-06-28T12:18:05.804Z,994.47
2023-06-28T12:19:05.703Z,994.56
2023-06-28T12:20:05.718Z,994.57
2023-06-28T12:21:05.739Z,994.58
2023-06-28T12:22:05.652Z,994.56
2023-06-28T12:23:05.665Z,994.51
2023-06-28T12:24:05.651Z,994.52
2023-06-28T12:25:05.700Z,994.56
2023-06-28T12:26:05.681Z,994.51
2023-06-28T12:27:05.611Z,994.47
2023-06-28T12:28:05.638Z,994.45
2023-06-28T12:29:07.212Z,994.43
2023-06-28T12:30:05.636Z,994.38
2023-06-28T12:31:06.699Z,994.43
2023-06-28T12:32:05.631Z,994.44
2023-06-28T12:33:05.614Z,994.41
2023-06-28T12:34:06.199Z,994.41
2023-06-28T12:35:05.555Z,994.48
2023-06-28T12:36:05.528Z,994.46
2023-06-28T12:37:05.528Z,994.42
2023-06-28T12:38:08.375Z,994.48
2023-06-28T12:39:08.388Z,994.41
2023-06-28T12:40:13.924Z,994.41
2023-06-28T12:41:07.731Z,994.42
2023-06-28T12:42:12.526Z,994.42
2023-06-28T12:43:06.494Z,994.42
2023-06-28T12:44:05.493Z,994.45
2023-06-28T12:45:05.519Z,994.43
2023-06-28T12:46:08.259Z,994.37
2023-06-28T12:47:05.450Z,994.31
2023-06-28T12:48:05.471Z,994.31
2023-06-28T12:49:05.446Z,994.35
2023-06-28T12:50:05.494Z,994.34
2023-06-28T12:51:05.438Z,994.29
2023-06-28T12:52:09.081Z,994.32
2023-06-28T12:53:05.398Z,994.27
2023-06-28T12:54:05.445Z,994.32
2023-06-28T12:55:05.372Z,994.27
2023-06-28T12:56:05.364Z,994.31
2023-06-28T12:57:05.370Z,994.23
2023-06-28T12:58:05.350Z,994.21
2023-06-28T12:59:05.337Z,994.28
2023-06-28T13:00:06.219Z,994.32
2023-06-28T13:01:05.479Z,994.30
2023-06-28T13:02:05.315Z,994.29
2023-06-28T13:03:05.340Z,994.33
2023-06-28T13:04:05.319Z,994.27
2023-06-28T13:05:05.278Z,994.25
2023-06-28T13:06:05.271Z,994.26
2023-06-28T13:07:05.282Z,994.24
2023-06-28T13:08:05.260Z,994.28
2023-06-28T13:09:05.288Z,994.23
2023-06-28T13:10:06.418Z,994.26
2023-06-28T13:11:06.412Z,994.31
2023-06-28T13:12:09.253Z,994.35
2023-06-28T13:13:06.421Z,994.30
2023-06-28T13:14:06.419Z,994.31
2023-06-28T13:15:06.376Z,994.26
2023-06-28T13:16:06.363Z,994.30
2023-06-28T13:17:06.360Z,994.34
2023-06-28T13:18:07.059Z,994.36
2023-06-28T13:19:06.337Z,994.34
2023-06-28T13:20:08.784Z,994.36
2023-06-28T13:21:06.366Z,994.28
2023-06-28T13:22:06.534Z,994.21
2023-06-28T13:23:06.330Z,994.21
2023-06-28T13:24:06.329Z,994.25
2023-06-28T13:25:06.368Z,994.26
2023-06-28T13:26:06.314Z,994.26
2023-06-28T13:27:06.302Z,994.32
2023-06-28T13:28:06.305Z,994.29
2023-06-28T13:29:06.247Z,994.24
2023-06-28T13:30:06.380Z,994.26
2023-06-28T13:31:06.395Z,994.34
2023-06-28T13:32:13.036Z,994.25
2023-06-28T13:33:06.321Z,994.27
2023-06-28T13:34:06.220Z,994.24
2023-06-28T13:35:09.739Z,994.33
2023-06-28T13:36:06.866Z,994.23
2023-06-28T13:37:12.853Z,994.24
2023-06-28T13:38:08.972Z,994.16
2023-06-28T13:39:23.338Z,994.20
2023-06-28T13:40:17.932Z,994.15
2023-06-28T13:41:07.119Z,994.09
2023-06-28T13:42:07.265Z,994.17
2023-06-28T13:43:07.457Z,994.17
2023-06-28T13:45:29.251Z,994.19
2023-06-28T13:45:31.105Z,994.24
2023-06-28T13:46:30.876Z,994.15
2023-06-28T13:47:30.923Z,994.09
2023-06-28T13:48:30.829Z,994.12
2023-06-28T13:49:30.868Z,994.11
2023-06-28T13:50:30.913Z,994.13
2023-06-28T13:51:30.817Z,994.16
2023-06-28T13:52:30.843Z,994.13
2023-06-28T13:53:30.820Z,994.16
2023-06-28T13:54:30.808Z,994.11
2023-06-28T13:55:30.795Z,994.11
2023-06-28T13:56:30.788Z,994.12
2023-06-28T13:57:30.755Z,994.10
2023-06-28T13:58:30.762Z,994.16
2023-06-28T13:59:30.766Z,994.18
2023-06-28T14:00:30.889Z,994.16
2023-06-28T14:01:30.781Z,994.11
2023-06-28T14:02:30.796Z,994.20
2023-06-28T14:03:30.754Z,994.18
2023-06-28T14:04:30.724Z,994.12
2023-06-28T14:05:30.684Z,994.13
2023-06-28T14:06:30.673Z,994.17
2023-06-28T14:07:30.839Z,994.11
2023-06-28T14:08:30.696Z,994.10
2023-06-28T14:09:30.683Z,994.12
2023-06-28T14:10:30.776Z,994.09
2023-06-28T14:11:30.650Z,994.06
2023-06-28T14:12:30.747Z,994.11
2023-06-28T14:13:30.714Z,994.00
2023-06-28T14:14:30.665Z,994.07
2023-06-28T14:15:30.644Z,994.05
2023-06-28T14:16:30.873Z,994.02
2023-06-28T14:17:30.658Z,994.03
2023-06-28T14:18:30.592Z,994.11
2023-06-28T14:19:30.644Z,994.04
2023-06-28T14:20:30.579Z,994.05
2023-06-28T14:21:30.569Z,994.02
2023-06-28T14:22:30.592Z,994.02
2023-06-28T14:23:30.584Z,993.96
2023-06-28T14:24:30.615Z,993.99
2023-06-28T14:49:42.234Z,993.67
2023-06-28T14:50:42.214Z,993.73
2023-06-28T14:51:42.203Z,993.70
2023-06-28T14:52:42.163Z,993.69
2023-06-28T14:53:50.324Z,993.68
2023-06-28T14:54:43.538Z,993.67
2023-06-28T14:55:42.464Z,993.71
2023-06-28T14:56:42.129Z,993.71
2023-06-28T14:57:42.125Z,993.73
2023-06-28T14:58:42.138Z,993.73
2023-06-28T14:59:43.993Z,993.72
2023-06-28T15:00:42.115Z,993.69
2023-06-28T15:01:42.105Z,993.68
2023-06-28T15:02:42.213Z,993.62
2023-06-28T15:03:42.102Z,993.68
2023-06-28T15:04:42.068Z,993.67
2023-06-28T15:05:42.416Z,993.57
2023-06-28T15:06:42.032Z,993.64
2023-06-28T15:07:42.020Z,993.63
2023-06-28T15:08:42.024Z,993.62
2023-06-28T15:09:42.010Z,993.64
2023-06-28T15:10:41.982Z,993.67
2023-06-28T15:11:41.987Z,993.58
2023-06-28T15:12:41.970Z,993.63
2023-06-28T15:13:41.972Z,993.58
2023-06-28T15:14:41.962Z,993.57
2023-06-28T15:15:42.125Z,993.65
2023-06-28T15:16:42.004Z,993.66
2023-06-28T15:17:41.958Z,993.61